Time,TemperatureF,DewpointF,PressureIn,WindDirection,WindDirectionDegrees,WindSpeedMPH,WindSpeedGustMPH,Humidity,HourlyPrecipIn,Conditions,Clouds,dailyrainin,SoftwareType,DateUTC
2013-09-13 00:12:00,68.0,59.0,29.88,SSE,150,7.0,9.0,74,0.00,,,0.25,,2013-09-13 06:12:00,
2013-09-13 00:22:00,68.0,62.0,29.88,WSW,241,6.0,14.0,80,0.00,,,0.25,,2013-09-13 06:22:00,
2013-09-13 00:52:00,68.0,61.0,29.87,South,185,4.0,11.0,78,0.00,,,0.25,,2013-09-13 06:52:00,
2013-09-13 01:11:00,68.0,61.0,29.87,SE,143,5.0,13.0,79,0.00,,,0.25,,2013-09-13 07:11:00,
2013-09-13 01:22:00,66.0,61.0,29.87,East,94,7.0,10.0,83,0.00,,,0.25,,2013-09-13 07:22:00,
2013-09-13 01:42:00,66.0,61.0,29.86,ENE,71,12.0,14.0,83,0.00,,,0.25,,2013-09-13 07:42:00,
2013-09-13 01:52:00,66.0,60.0,29.86,ESE,110,9.0,12.0,82,0.00,,,0.25,,2013-09-13 07:52:00,
2013-09-13 02:11:00,67.0,60.0,29.85,SE,144,14.0,21.0,78,0.00,,,0.25,,2013-09-13 08:11:00,
2013-09-13 02:22:00,66.0,61.0,29.87,West,268,7.0,11.0,83,0.00,,,0.25,,2013-09-13 08:22:00,
2013-09-13 02:42:00,63.0,61.0,29.86,North,360,16.0,19.0,93,0.00,,,0.25,,2013-09-13 08:42:00,
2013-09-13 02:52:00,64.0,61.0,29.87,WSW,254,2.0,10.0,90,0.01,,,0.26,,2013-09-13 08:52:00,
2013-09-13 03:12:00,64.0,61.0,29.86,NW,314,4.0,8.0,91,0.02,,,0.27,,2013-09-13 09:12:00,
2013-09-13 03:21:00,63.0,60.0,29.85,North,5,4.0,9.0,91,0.04,,,0.28,,2013-09-13 09:21:00,
2013-09-13 03:43:00,64.0,61.0,29.86,North,5,3.0,5.0,89,0.05,,,0.30,,2013-09-13 09:43:00,
2013-09-13 03:53:00,63.0,60.0,29.85,North,5,5.0,6.0,90,0.06,,,0.32,,2013-09-13 09:53:00,
2013-09-13 04:13:00,64.0,61.0,29.86,North,5,4.0,5.0,90,0.05,,,0.32,,2013-09-13 10:13:00,
2013-09-13 04:23:00,63.0,60.0,29.85,North,5,2.0,4.0,91,0.05,,,0.34,,2013-09-13 10:23:00,
2013-09-13 04:42:00,63.0,61.0,29.85,NE,53,6.0,8.0,93,0.05,,,0.35,,2013-09-13 10:42:00,
2013-09-13 04:52:00,62.0,60.0,29.85,ENE,76,9.0,14.0,94,0.04,,,0.35,,2013-09-13 10:52:00,
2013-09-13 05:12:00,62.0,61.0,29.85,East,81,8.0,11.0,95,0.04,,,0.35,,2013-09-13 11:12:00,
2013-09-13 05:22:00,62.0,61.0,29.84,ESE,105,9.0,11.0,95,0.05,,,0.38,,2013-09-13 11:22:00,
2013-09-13 05:42:00,62.0,61.0,29.84,East,98,9.0,11.0,95,0.05,,,0.39,,2013-09-13 11:42:00,
2013-09-13 05:52:00,62.0,61.0,29.84,East,82,9.0,11.0,95,0.04,,,0.21,,2013-09-13 11:52:00,
2013-09-13 06:12:00,62.0,61.0,29.84,East,82,7.0,8.0,95,0.04,,,0.21,,2013-09-13 12:12:00,
2013-09-13 06:22:00,62.0,61.0,29.84,ENE,78,8.0,12.0,95,0.02,,,0.22,,2013-09-13 12:22:00,
2013-09-13 06:42:00,62.0,60.0,29.84,ENE,78,2.0,9.0,94,0.02,,,0.23,,2013-09-13 12:42:00,
2013-09-13 06:52:00,64.0,61.0,29.84,ENE,78,0.0,5.0,90,0.04,,,0.22,,2013-09-13 12:52:00,
2013-09-13 07:11:00,63.0,60.0,29.85,ENE,78,3.0,7.0,90,0.04,,,0.22,,2013-09-13 13:11:00,
2013-09-13 07:21:00,63.0,60.0,29.85,ENE,78,6.0,9.0,89,0.03,,,0.22,,2013-09-13 13:21:00,
2013-09-13 07:52:00,62.0,60.0,29.85,ESE,120,10.0,14.0,92,0.13,,,0.35,,2013-09-13 13:52:00,
2013-09-13 08:11:00,63.0,60.0,29.86,East,85,13.0,15.0,90,0.13,,,0.35,,2013-09-13 14:11:00,
2013-09-13 08:22:00,62.0,60.0,29.85,East,88,13.0,16.0,92,0.13,,,0.35,,2013-09-13 14:22:00,
2013-09-13 08:42:00,62.0,59.0,29.86,East,90,11.0,16.0,91,0.13,,,0.35,,2013-09-13 14:42:00,
2013-09-13 08:52:00,62.0,60.0,29.86,East,84,10.0,14.0,92,0.00,,,0.35,,2013-09-13 14:52:00,
2013-09-13 09:11:00,63.0,60.0,29.86,East,90,8.0,11.0,89,0.00,,,0.35,,2013-09-13 15:11:00,
2013-09-13 09:22:00,63.0,59.0,29.87,East,90,7.0,9.0,87,0.00,,,0.35,,2013-09-13 15:22:00,
2013-09-13 09:43:00,64.0,60.0,29.87,East,90,4.0,9.0,86,0.01,,,0.36,,2013-09-13 15:43:00,
2013-09-13 09:53:00,64.0,60.0,29.88,ESE,108,7.0,12.0,88,0.01,,,0.36,,2013-09-13 15:53:00,
2013-09-13 10:12:00,63.0,59.0,29.88,East,92,6.0,9.0,88,0.02,,,0.37,,2013-09-13 16:12:00,
2013-09-13 10:24:00,64.0,60.0,29.88,East,92,0.0,5.0,87,0.02,,,0.37,,2013-09-13 16:24:00,
2013-09-13 10:43:00,63.0,60.0,29.88,East,92,5.0,8.0,91,0.01,,,0.37,,2013-09-13 16:43:00,
2013-09-13 10:54:00,64.0,60.0,29.88,SE,142,4.0,8.0,88,0.01,,,0.37,,2013-09-13 16:54:00,
2013-09-13 11:13:00,64.0,60.0,29.88,South,185,4.0,10.0,87,0.00,,,0.37,,2013-09-13 17:13:00,
2013-09-13 11:24:00,64.0,61.0,29.89,South,185,2.0,5.0,90,0.00,,,0.37,,2013-09-13 17:24:00,
2013-09-13 11:33:00,64.0,61.0,29.89,South,185,2.0,5.0,90,0.00,,,0.37,,2013-09-13 17:33:00,
2013-09-13 11:44:00,64.0,61.0,29.89,South,185,2.0,5.0,90,0.00,,,0.37,,2013-09-13 17:44:00,
2013-09-13 11:53:00,64.0,61.0,29.88,SW,219,2.0,5.0,91,0.01,,,0.38,,2013-09-13 17:53:00,
2013-09-13 12:12:00,64.0,62.0,29.88,SW,219,0.0,2.0,92,0.03,,,0.40,,2013-09-13 18:12:00,
2013-09-13 12:22:00,63.0,61.0,29.88,SW,219,5.0,7.0,93,0.04,,,0.41,,2013-09-13 18:22:00,
2013-09-13 12:42:00,62.0,61.0,29.88,SW,219,6.0,7.0,95,0.05,,,0.42,,2013-09-13 18:42:00,
2013-09-13 12:52:00,63.0,62.0,29.88,SSE,157,6.0,8.0,96,0.03,,,0.42,,2013-09-13 18:52:00,
2013-09-13 13:11:00,63.0,61.0,29.87,ESE,119,8.0,10.0,94,0.02,,,0.42,,2013-09-13 19:11:00,
2013-09-13 13:22:00,63.0,61.0,29.87,SE,126,9.0,12.0,93,0.01,,,0.42,,2013-09-13 19:22:00,
2013-09-13 13:43:00,63.0,61.0,29.87,ESE,121,9.0,12.0,93,0.00,,,0.42,,2013-09-13 19:43:00,
2013-09-13 13:52:00,63.0,61.0,29.86,ESE,117,9.0,14.0,93,0.00,,,0.42,,2013-09-13 19:52:00,
2013-09-13 14:11:00,64.0,62.0,29.85,East,82,4.0,12.0,92,0.00,,,0.42,,2013-09-13 20:11:00,
2013-09-13 14:22:00,65.0,62.0,29.85,East,82,5.0,9.0,89,0.00,,,0.42,,2013-09-13 20:22:00,
2013-09-13 14:52:00,67.0,63.0,29.84,ENE,69,9.0,13.0,86,0.00,,,0.39,,2013-09-13 20:52:00,
2013-09-13 15:12:00,68.0,62.0,29.84,ENE,65,7.0,14.0,81,0.00,,,0.39,,2013-09-13 21:12:00,
2013-09-13 15:22:00,68.0,61.0,29.83,ENE,65,10.0,15.0,79,0.00,,,0.39,,2013-09-13 21:22:00,
2013-09-13 15:54:00,69.0,61.0,29.82,ENE,74,11.0,17.0,75,0.00,,,0.39,,2013-09-13 21:54:00,
2013-09-13 16:13:00,69.0,61.0,29.82,ENE,70,11.0,15.0,75,0.00,,,0.39,,2013-09-13 22:13:00,
2013-09-13 16:24:00,69.0,61.0,29.82,ENE,65,11.0,14.0,76,0.00,,,0.39,,2013-09-13 22:24:00,
2013-09-13 16:43:00,69.0,61.0,29.81,ENE,57,9.0,13.0,77,0.00,,,0.39,,2013-09-13 22:43:00,
2013-09-13 16:53:00,69.0,61.0,29.81,ENE,57,9.0,13.0,77,0.00,,,0.39,,2013-09-13 22:53:00,
2013-09-13 17:12:00,70.0,61.0,29.80,ENE,72,12.0,17.0,74,0.00,,,0.39,,2013-09-13 23:12:00,
2013-09-13 17:22:00,69.0,61.0,29.79,ENE,72,12.0,17.0,75,0.00,,,0.39,,2013-09-13 23:22:00,
2013-09-13 17:53:00,68.0,61.0,29.80,ESE,115,6.0,17.0,78,0.00,,,0.39,,2013-09-13 23:53:00,
2013-09-13 18:12:00,69.0,62.0,29.80,ENE,69,8.0,13.0,78,0.00,,,0.39,,2013-09-14 00:12:00,
2013-09-13 18:22:00,68.0,61.0,29.79,ESE,105,10.0,13.0,78,0.00,,,0.39,,2013-09-14 00:22:00,
2013-09-13 18:42:00,68.0,61.0,29.78,East,84,9.0,14.0,79,0.00,,,0.39,,2013-09-14 00:42:00,
2013-09-13 18:52:00,67.0,60.0,29.78,East,98,8.0,11.0,79,0.00,,,0.39,,2013-09-14 00:52:00,
2013-09-13 19:11:00,67.0,61.0,29.78,East,81,8.0,11.0,80,0.00,,,0.39,,2013-09-14 01:11:00,
2013-09-13 19:22:00,67.0,59.0,29.78,East,96,6.0,10.0,75,0.00,,,0.39,,2013-09-14 01:22:00,
2013-09-13 19:42:00,67.0,61.0,29.78,ENE,63,9.0,11.0,81,0.00,,,0.39,,2013-09-14 01:42:00,
2013-09-13 19:52:00,67.0,60.0,29.78,ESE,104,12.0,15.0,78,0.00,,,0.39,,2013-09-14 01:52:00,
2013-09-13 20:12:00,68.0,59.0,29.78,East,91,13.0,15.0,73,0.00,,,0.39,,2013-09-14 02:12:00,
2013-09-13 20:22:00,68.0,59.0,29.78,SE,126,10.0,14.0,72,0.00,,,0.39,,2013-09-14 02:22:00,
2013-09-13 20:42:00,68.0,59.0,29.78,ENE,59,8.0,19.0,72,0.00,,,0.39,,2013-09-14 02:42:00,
2013-09-13 20:52:00,68.0,59.0,29.80,SE,132,9.0,16.0,72,0.00,,,0.39,,2013-09-14 02:52:00,
2013-09-13 21:12:00,69.0,58.0,29.80,ESE,118,16.0,20.0,67,0.00,,,0.39,,2013-09-14 03:12:00,
2013-09-13 21:22:00,69.0,58.0,29.80,ESE,119,17.0,23.0,67,0.00,,,0.39,,2013-09-14 03:22:00,
2013-09-13 21:44:00,69.0,56.0,29.80,ESE,121,18.0,23.0,64,0.00,,,0.39,,2013-09-14 03:44:00,
2013-09-13 21:55:00,70.0,57.0,29.80,ESE,119,14.0,21.0,63,0.00,,,0.39,,2013-09-14 03:55:00,
2013-09-13 22:14:00,70.0,56.0,29.80,SE,128,20.0,23.0,61,0.00,,,0.39,,2013-09-14 04:14:00,
2013-09-13 22:24:00,69.0,55.0,29.80,SE,125,23.0,31.0,62,0.00,,,0.39,,2013-09-14 04:24:00,
2013-09-13 22:43:00,70.0,55.0,29.80,ESE,117,18.0,28.0,59,0.00,,,0.39,,2013-09-14 04:43:00,
2013-09-13 22:54:00,69.0,55.0,29.80,ESE,121,11.0,17.0,61,0.00,,,0.39,,2013-09-14 04:54:00,
2013-09-13 23:13:00,69.0,56.0,29.81,ESE,120,8.0,18.0,63,0.00,,,0.39,,2013-09-14 05:13:00,
2013-09-13 23:22:00,70.0,55.0,29.80,ESE,121,15.0,22.0,60,0.00,,,0.39,,2013-09-14 05:22:00,
2013-09-13 23:43:00,69.0,55.0,29.81,ESE,115,16.0,25.0,61,0.00,,,0.39,,2013-09-14 05:43:00,
2013-09-13 23:52:00,68.0,56.0,29.80,ESE,118,15.0,22.0,66,0.02,,,0.41,,2013-09-14 05:52:00,